Time;durP1;ratioP1;P1;durP2;ratioP2;P2;SDS_P1;SDS_P2;PMS_P1;PMS_P2;Temp;Humidity;BMP_temperature;BMP_pressure;BME280_temperature;BME280_humidity;BME280_pressure;Samples;Min_cycle;Max_cycle;Signal;HPM_P1;HPM_P2
2022/07/10 00:00:48;;;;;;;0.00;0.00;;;;;;;;;;5048766;28;20282;-84
2022/07/10 00:03:16;;;;;;;0.00;0.00;;;;;;;;;;5047932;28;20198;-83
2022/07/10 00:05:43;;;;;;;0.00;0.00;;;;;;;;;;5046481;28;20255;-84
2022/07/10 00:08:11;;;;;;;0.00;0.00;;;;;;;;;;5053865;28;20572;-84
2022/07/10 00:10:39;;;;;;;0.00;0.00;;;;;;;;;;5065489;28;20294;-83
2022/07/10 00:13:07;;;;;;;0.00;0.00;;;;;;;;;;5048183;28;20296;-83
2022/07/10 00:15:34;;;;;;;0.00;0.00;;;;;;;;;;5049445;28;20203;-84
2022/07/10 00:18:03;;;;;;;0.00;0.00;;;;;;;;;;5068681;28;20213;-84
2022/07/10 00:20:32;;;;;;;0.00;0.00;;;;;;;;;;5051278;28;20195;-83
2022/07/10 00:22:59;;;;;;;0.00;0.00;;;;;;;;;;5049399;28;20206;-84
2022/07/10 00:25:27;;;;;;;0.00;0.00;;;;;;;;;;5046285;28;20214;-84
2022/07/10 00:27:54;;;;;;;0.00;0.00;;;;;;;;;;5042270;28;20190;-84
2022/07/10 00:30:21;;;;;;;0.00;0.00;;;;;;;;;;5043551;28;20203;-83
2022/07/10 00:32:49;;;;;;;0.00;0.00;;;;;;;;;;5048235;28;20218;-84
2022/07/10 00:35:18;;;;;;;0.00;0.00;;;;;;;;;;5048768;28;20325;-83
2022/07/10 00:37:46;;;;;;;0.00;0.00;;;;;;;;;;5068183;28;20206;-83
2022/07/10 00:40:13;;;;;;;0.00;0.00;;;;;;;;;;5063673;28;20199;-83
2022/07/10 00:42:41;;;;;;;0.00;0.00;;;;;;;;;;5042198;28;20261;-83
2022/07/10 00:45:09;;;;;;;0.00;0.00;;;;;;;;;;5066904;28;20202;-82
2022/07/10 00:47:37;;;;;;;0.00;0.00;;;;;;;;;;5045169;28;20602;-83
2022/07/10 00:50:05;;;;;;;0.00;0.00;;;15.90;99.90;;;;;;5044907;28;20215;-84
2022/07/10 00:52:35;;;;;;;0.00;0.00;;;15.80;99.90;;;;;;5047009;28;20230;-83
2022/07/10 00:55:03;;;;;;;0.00;0.00;;;15.80;99.90;;;;;;5045673;28;20206;-83
2022/07/10 00:57:31;;;;;;;0.00;0.00;;;;;;;;;;5045476;28;20199;-84
2022/07/10 01:00:00;;;;;;;0.00;0.00;;;;;;;;;;5040315;28;20207;-83
2022/07/10 01:02:28;;;;;;;0.00;0.00;;;15.80;99.90;;;;;;5053643;28;20309;-82
2022/07/10 01:04:58;;;;;;;0.00;0.00;;;15.70;99.90;;;;;;5048938;28;20198;-83
2022/07/10 01:07:25;;;;;;;0.00;0.00;;;15.70;99.90;;;;;;5060062;28;20211;-83
2022/07/10 01:09:54;;;;;;;0.00;0.00;;;15.70;99.90;;;;;;5042922;28;20210;-83
2022/07/10 01:12:22;;;;;;;0.00;0.00;;;15.70;99.90;;;;;;5060409;28;20235;-83
2022/07/10 01:14:49;;;;;;;0.00;0.00;;;15.60;99.90;;;;;;5057900;28;20199;-83
2022/07/10 01:17:17;;;;;;;0.00;0.00;;;15.70;99.90;;;;;;5044195;28;20741;-84
2022/07/10 01:19:44;;;;;;;0.00;0.00;;;15.60;99.90;;;;;;5045503;28;20198;-82
2022/07/10 01:22:13;;;;;;;0.00;0.00;;;15.60;99.90;;;;;;5046468;28;20251;-81
2022/07/10 01:24:41;;;;;;;0.00;0.00;;;15.60;99.90;;;;;;5060526;28;20244;-83
2022/07/10 01:27:08;;;;;;;0.00;0.00;;;15.60;99.90;;;;;;5049395;28;20222;-83
2022/07/10 01:29:36;;;;;;;0.00;0.00;;;15.60;99.90;;;;;;5048131;28;20206;-84
2022/07/10 01:32:04;;;;;;;0.00;0.00;;;15.60;99.90;;;;;;5070336;28;20257;-84
2022/07/10 01:34:31;;;;;;;0.00;0.00;;;15.60;99.90;;;;;;5047509;28;20221;-83
2022/07/10 01:36:58;;;;;;;0.00;0.00;;;15.60;99.90;;;;;;5051276;28;20202;-81
2022/07/10 01:39:27;;;;;;;0.00;0.00;;;15.60;99.90;;;;;;5042581;28;20200;-83
2022/07/10 01:41:55;;;;;;;0.00;0.00;;;;;;;;;;5043921;28;20215;-84
2022/07/10 01:44:22;;;;;;;0.00;0.00;;;;;;;;;;5044878;28;20211;-82
2022/07/10 01:46:50;;;;;;;0.00;0.00;;;;;;;;;;5046345;28;20717;-83
2022/07/10 01:49:17;;;;;;;0.00;0.00;;;;;;;;;;5054745;28;20219;-83
2022/07/10 01:51:45;;;;;;;0.00;0.00;;;;;;;;;;5048109;28;20310;-84
2022/07/10 01:54:12;;;;;;;0.00;0.00;;;;;;;;;;5046753;28;20195;-84
2022/07/10 01:56:41;;;;;;;0.00;0.00;;;;;;;;;;5044440;28;20202;-84
2022/07/10 01:59:09;;;;;;;0.00;0.00;;;;;;;;;;5046425;28;20233;-83
2022/07/10 02:01:37;;;;;;;0.00;0.00;;;;;;;;;;5040655;28;20227;-83
2022/07/10 02:06:50;;;;;;;0.00;0.00;;;;;;;;;;5045367;28;20215;-83
2022/07/10 02:09:17;;;;;;;0.00;0.00;;;;;;;;;;5039607;28;20252;-83
2022/07/10 02:11:46;;;;;;;0.00;0.00;;;;;;;;;;5041088;28;20214;-81
2022/07/10 02:14:14;;;;;;;0.00;0.00;;;;;;;;;;5037442;28;20205;-82
2022/07/10 02:16:41;;;;;;;0.00;0.00;;;;;;;;;;5049410;28;20285;-83
2022/07/10 02:19:09;;;;;;;0.00;0.00;;;;;;;;;;5046181;28;20214;-84
2022/07/10 02:21:37;;;;;;;0.00;0.00;;;;;;;;;;5043527;28;20210;-84
2022/07/10 02:24:05;;;;;;;0.00;0.00;;;;;;;;;;5047932;28;20241;-85
2022/07/10 02:26:32;;;;;;;0.00;0.00;;;;;;;;;;5045060;28;20333;-84
2022/07/10 02:29:01;;;;;;;0.00;0.00;;;;;;;;;;5039631;28;20207;-84
2022/07/10 02:31:29;;;;;;;0.00;0.00;;;;;;;;;;5045543;28;20725;-83
2022/07/10 02:33:56;;;;;;;0.00;0.00;;;;;;;;;;5041067;28;20190;-83
2022/07/10 02:36:24;;;;;;;0.00;0.00;;;;;;;;;;5063449;28;20198;-82
2022/07/10 02:38:52;;;;;;;0.00;0.00;;;;;;;;;;5039107;28;20200;-83
2022/07/10 02:41:19;;;;;;;0.00;0.00;;;;;;;;;;5060188;28;20227;-84
2022/07/10 02:43:47;;;;;;;0.00;0.00;;;;;;;;;;5059429;28;20199;-83
2022/07/10 02:46:16;;;;;;;0.00;0.00;;;;;;;;;;5042701;28;20243;-83
2022/07/10 02:48:44;;;;;;;0.00;0.00;;;;;;;;;;5041197;28;20202;-83
2022/07/10 02:51:12;;;;;;;0.00;0.00;;;;;;;;;;5045021;28;20230;-83
2022/07/10 02:53:40;;;;;;;0.00;0.00;;;;;;;;;;5049430;28;20206;-83
2022/07/10 02:56:07;;;;;;;0.00;0.00;;;;;;;;;;5047560;28;20208;-81
2022/07/10 02:58:35;;;;;;;0.00;0.00;;;;;;;;;;5044465;28;20327;-82
2022/07/10 03:01:02;;;;;;;0.00;0.00;;;;;;;;;;5048227;28;20218;-83
2022/07/10 03:03:32;;;;;;;0.00;0.00;;;;;;;;;;5047033;28;20281;-83
2022/07/10 03:06:00;;;;;;;0.00;0.00;;;;;;;;;;5050482;28;20199;-84
2022/07/10 03:08:28;;;;;;;0.00;0.00;;;;;;;;;;5072304;28;20205;-83
2022/07/10 03:10:55;;;;;;;0.00;0.00;;;;;;;;;;5046128;28;20288;-82
2022/07/10 03:13:23;;;;;;;0.00;0.00;;;;;;;;;;5048432;28;20209;-83
2022/07/10 03:15:50;;;;;;;0.00;0.00;;;;;;;;;;5048629;28;20311;-83
2022/07/10 03:18:18;;;;;;;0.00;0.00;;;;;;;;;;5047956;28;20195;-82
2022/07/10 03:20:47;;;;;;;0.00;0.00;;;;;;;;;;5044225;28;20199;-83
2022/07/10 03:23:14;;;;;;;0.00;0.00;;;;;;;;;;5051618;28;20194;-83
2022/07/10 03:25:41;;;;;;;0.00;0.00;;;;;;;;;;5053691;28;20202;-82
2022/07/10 03:28:09;;;;;;;0.00;0.00;;;;;;;;;;5071063;28;20264;-83
2022/07/10 03:30:36;;;;;;;0.10;0.10;;;;;;;;;;5061447;28;20205;-83
2022/07/10 03:33:04;;;;;;;0.00;0.00;;;;;;;;;;5052110;28;20646;-83
2022/07/10 03:35:32;;;;;;;0.00;0.00;;;;;;;;;;5053066;28;20237;-83
2022/07/10 03:38:02;;;;;;;0.07;0.07;;;;;;;;;;5049462;28;20188;-82
2022/07/10 03:40:29;;;;;;;0.00;0.00;;;;;;;;;;5053397;28;20195;-82
2022/07/10 03:42:57;;;;;;;0.00;0.00;;;;;;;;;;5053196;28;20301;-82
2022/07/10 03:45:24;;;;;;;0.00;0.00;;;;;;;;;;5050133;28;20198;-82
2022/07/10 03:47:55;;;;;;;0.00;0.00;;;;;;;;;;5052446;28;20228;-83
2022/07/10 03:50:23;;;;;;;0.00;0.00;;;;;;;;;;5050490;28;20326;-83
2022/07/10 03:52:50;;;;;;;0.07;0.07;;;;;;;;;;5064073;28;20219;-83
2022/07/10 03:55:20;;;;;;;0.00;0.00;;;;;;;;;;5066327;28;20195;-83
2022/07/10 03:57:56;;;;;;;0.00;0.00;;;;;;;;;;5055621;28;20210;-83
2022/07/10 04:00:24;;;;;;;0.10;0.10;;;;;;;;;;5046361;28;20202;-83
2022/07/10 04:02:57;;;;;;;0.00;0.00;;;;;;;;;;5046988;28;20233;-83
2022/07/10 04:05:25;;;;;;;0.00;0.00;;;;;;;;;;5066263;28;20191;-82
2022/07/10 04:07:52;;;;;;;0.00;0.00;;;;;;;;;;5055111;28;20241;-81
2022/07/10 04:10:21;;;;;;;0.00;0.00;;;;;;;;;;5047127;28;20256;-82
2022/07/10 04:12:49;;;;;;;0.00;0.00;;;;;;;;;;5064660;28;20223;-82
2022/07/10 04:15:17;;;;;;;0.00;0.00;;;;;;;;;;5046959;28;20214;-82
2022/07/10 04:17:45;;;;;;;0.00;0.00;;;;;;;;;;5038505;28;20199;-82
2022/07/10 04:20:15;;;;;;;0.00;0.00;;;;;;;;;;5062736;28;20206;-82
2022/07/10 04:22:43;;;;;;;0.00;0.00;;;;;;;;;;5046331;28;20309;-82
2022/07/10 04:25:11;;;;;;;0.00;0.00;;;;;;;;;;5048771;28;20246;-82
2022/07/10 04:27:40;;;;;;;0.00;0.00;;;;;;;;;;5061711;28;20230;-82
2022/07/10 04:30:08;;;;;;;0.00;0.00;;;;;;;;;;5050204;28;20218;-82
2022/07/10 04:32:35;;;;;;;0.00;0.00;;;;;;;;;;5050231;28;20216;-82
2022/07/10 04:35:03;;;;;;;0.00;0.00;;;;;;;;;;5050419;28;20254;-82
2022/07/10 04:37:31;;;;;;;0.10;0.10;;;;;;;;;;5063215;28;20263;-82
2022/07/10 04:39:59;;;;;;;0.00;0.00;;;;;;;;;;5045159;28;20203;-82
2022/07/10 04:42:27;;;;;;;0.00;0.00;;;;;;;;;;5046546;28;20225;-82
2022/07/10 04:44:56;;;;;;;0.00;0.00;;;;;;;;;;5049456;28;20191;-82
2022/07/10 04:47:24;;;;;;;0.07;0.07;;;;;;;;;;5049783;28;20214;-82
2022/07/10 04:49:52;;;;;;;0.00;0.00;;;;;;;;;;5041797;28;20199;-82
2022/07/10 04:52:19;;;;;;;0.00;0.00;;;;;;;;;;5070941;28;20233;-83
2022/07/10 04:54:47;;;;;;;0.10;0.10;;;;;;;;;;5046534;28;20207;-81
2022/07/10 04:57:15;;;;;;;0.00;0.00;;;;;;;;;;5047103;28;20290;-83
2022/07/10 04:59:42;;;;;;;0.10;0.10;;;;;;;;;;5045854;28;20226;-82
2022/07/10 05:02:12;;;;;;;0.10;0.10;;;;;;;;;;5043708;28;20253;-82
2022/07/10 05:04:40;;;;;;;0.00;0.00;;;;;;;;;;5050685;28;20199;-83
2022/07/10 05:07:08;;;;;;;0.10;0.10;;;;;;;;;;5061416;28;20211;-82
2022/07/10 05:09:35;;;;;;;0.10;0.10;;;;;;;;;;5041741;28;20693;-82
2022/07/10 05:12:07;;;;;;;0.00;0.00;;;;;;;;;;5045431;28;20273;-81
2022/07/10 05:14:47;;;;;;;0.00;0.00;;;;;;;;;;5049334;28;20198;-80
2022/07/10 05:17:18;;;;;;;0.00;0.00;;;;;;;;;;5069312;28;20195;-82
2022/07/10 05:19:46;;;;;;;0.00;0.00;;;;;;;;;;5048494;28;20217;-82
2022/07/10 05:22:18;;;;;;;0.10;0.10;;;;;;;;;;5045952;28;20227;-81
2022/07/10 05:24:49;;;;;;;0.10;0.10;;;;;;;;;;5050413;28;20579;-83
2022/07/10 05:27:18;;;;;;;0.00;0.00;;;;;;;;;;5066018;28;20801;-82
2022/07/10 05:29:46;;;;;;;0.10;0.10;;;;;;;;;;5063702;28;20210;-82
2022/07/10 05:32:14;;;;;;;0.00;0.00;;;;;;;;;;5051523;28;20250;-82
2022/07/10 05:34:43;;;;;;;0.00;0.00;;;;;;;;;;5047377;28;20261;-83
2022/07/10 05:37:11;;;;;;;0.00;0.00;;;;;;;;;;5066993;28;20229;-82
2022/07/10 05:39:39;;;;;;;0.00;0.00;;;;;;;;;;5046368;28;20199;-82
2022/07/10 05:42:06;;;;;;;0.00;0.00;;;;;;;;;;5052462;28;20218;-83
2022/07/10 05:44:34;;;;;;;0.10;0.10;;;;;;;;;;5069183;28;20206;-83
2022/07/10 05:47:02;;;;;;;0.10;0.10;;;;;;;;;;5053788;28;20274;-83
2022/07/10 05:49:32;;;;;;;0.00;0.00;;;;;;;;;;5069061;28;20195;-82
2022/07/10 05:52:01;;;;;;;0.00;0.00;;;;;;;;;;5072116;28;20735;-82
2022/07/10 05:54:28;;;;;;;0.00;0.00;;;;;;;;;;5053272;28;20195;-82
2022/07/10 05:56:56;;;;;;;0.00;0.00;;;;;;;;;;5054162;28;20285;-83
2022/07/10 05:59:24;;;;;;;0.00;0.00;;;;;;;;;;5075163;28;20198;-83
2022/07/10 06:01:52;;;;;;;0.00;0.00;;;;;;;;;;5052263;28;20233;-83
2022/07/10 06:04:19;;;;;;;0.00;0.00;;;;;;;;;;5071927;28;20206;-83
2022/07/10 06:06:47;;;;;;;0.00;0.00;;;;;;;;;;5048801;28;20309;-82
2022/07/10 06:09:16;;;;;;;0.00;0.00;;;;;;;;;;5053439;28;20234;-85
2022/07/10 06:11:45;;;;;;;0.00;0.00;;;;;;;;;;5053231;28;20215;-84
2022/07/10 06:14:13;;;;;;;0.00;0.00;;;;;;;;;;5059259;28;20204;-83
2022/07/10 06:16:41;;;;;;;0.00;0.00;;;;;;;;;;5061478;28;20207;-84
2022/07/10 06:19:08;;;;;;;0.00;0.00;;;;;;;;;;5052209;28;20202;-84
2022/07/10 06:21:36;;;;;;;0.10;0.10;;;;;;;;;;5043663;28;20225;-83
2022/07/10 06:24:04;;;;;;;0.00;0.00;;;;;;;;;;5063572;28;20199;-82
2022/07/10 06:26:32;;;;;;;0.00;0.00;;;;;;;;;;5047069;28;20225;-83
2022/07/10 06:29:00;;;;;;;0.00;0.00;;;;;;;;;;5064707;28;20216;-82
2022/07/10 06:31:28;;;;;;;0.00;0.00;;;;;;;;;;5044540;28;20257;-84
2022/07/10 06:33:56;;;;;;;0.00;0.00;;;;;;;;;;5048978;28;20198;-81
2022/07/10 06:36:23;;;;;;;0.00;0.00;;;;;;;;;;5050074;28;20198;-82
2022/07/10 06:38:51;;;;;;;0.00;0.00;;;;;;;;;;5050838;28;20196;-82
2022/07/10 06:41:18;;;;;;;0.10;0.10;;;;;;;;;;5044965;28;20306;-82
2022/07/10 06:43:47;;;;;;;0.00;0.00;;;;;;;;;;5044092;28;20203;-82
2022/07/10 06:46:17;;;;;;;0.00;0.00;;;;;;;;;;5052606;28;20240;-81
2022/07/10 06:48:45;;;;;;;0.00;0.00;;;;;;;;;;5048887;28;20253;-81
2022/07/10 06:51:12;;;;;;;0.00;0.00;;;;;;;;;;5045874;28;20215;-79
2022/07/10 06:53:40;;;;;;;0.00;0.00;;;;;;;;;;5051322;28;20634;-79
2022/07/10 06:56:08;;;;;;;0.00;0.00;;;;;;;;;;5070377;28;20300;-83
2022/07/10 06:58:36;;;;;;;0.00;0.00;;;;;;;;;;5072205;28;20202;-84
2022/07/10 07:01:05;;;;;;;0.00;0.00;;;;;;;;;;5048215;28;20229;-82
2022/07/10 07:03:32;;;;;;;0.00;0.00;;;;;;;;;;5056211;28;20203;-84
2022/07/10 07:06:00;;;;;;;0.00;0.00;;;;;;;;;;5049942;28;20191;-81
2022/07/10 07:08:30;;;;;;;0.00;0.00;;;;;;;;;;5071240;28;20228;-84
2022/07/10 07:10:58;;;;;;;0.00;0.00;;;;;;;;;;5068792;28;20223;-83
2022/07/10 07:13:25;;;;;;;0.10;0.10;;;;;;;;;;5057394;28;20213;-83
2022/07/10 07:15:58;;;;;;;0.00;0.00;;;;;;;;;;5050828;28;20199;-82
2022/07/10 07:18:32;;;;;;;0.00;0.00;;;;;;;;;;5052443;28;20190;-83
2022/07/10 07:23:45;;;;;;;0.00;0.00;;;;;;;;;;5049222;28;20189;-82
2022/07/10 07:26:12;;;;;;;0.00;0.00;;;;;;;;;;5050937;28;20210;-82
2022/07/10 07:28:40;;;;;;;0.00;0.00;;;;;;;;;;5051679;28;20346;-80
2022/07/10 07:31:08;;;;;;;0.00;0.00;;;;;;;;;;5051559;28;20231;-83
2022/07/10 07:33:37;;;;;;;0.00;0.00;;;;;;;;;;5051935;28;20195;-87
2022/07/10 07:36:05;;;;;;;0.00;0.00;;;;;;;;;;5053440;28;20213;-83
2022/07/10 07:38:32;;;;;;;0.00;0.00;;;;;;;;;;5050535;28;20207;-79
2022/07/10 07:41:00;;;;;;;0.00;0.00;;;;;;;;;;5051185;28;20225;-80
2022/07/10 07:43:28;;;;;;;0.10;0.10;;;;;;;;;;5066481;28;20199;-83
2022/07/10 07:45:56;;;;;;;0.00;0.00;;;;;;;;;;5053629;28;20191;-81
2022/07/10 07:48:24;;;;;;;0.00;0.00;;;;;;;;;;5063389;28;20221;-79
2022/07/10 07:50:53;;;;;;;0.00;0.00;;;;;;;;;;5050680;28;20195;-80
2022/07/10 07:53:20;;;;;;;0.00;0.00;;;;;;;;;;5045601;28;20199;-80
2022/07/10 07:55:49;;;;;;;0.00;0.00;;;;;;;;;;5048413;28;20738;-80
2022/07/10 07:58:16;;;;;;;0.00;0.00;;;;;;;;;;5068532;28;20198;-79
2022/07/10 08:00:44;;;;;;;0.00;0.00;;;;;;;;;;5052797;28;20225;-81
2022/07/10 08:03:11;;;;;;;0.00;0.00;;;;;;;;;;5047114;28;20199;-82
2022/07/10 08:05:39;;;;;;;0.00;0.00;;;;;;;;;;5066756;28;20224;-80
2022/07/10 08:08:09;;;;;;;0.00;0.00;;;;;;;;;;5047183;28;20226;-81
2022/07/10 08:10:38;;;;;;;0.00;0.00;;;;;;;;;;5046510;28;20199;-81
2022/07/10 08:13:05;;;;;;;0.00;0.00;;;;;;;;;;5044158;28;20669;-76
2022/07/10 08:15:34;;;;;;;0.00;0.00;;;;;;;;;;5066008;28;20214;-79
2022/07/10 08:18:03;;;;;;;0.00;0.00;;;;;;;;;;5049976;28;20175;-80
2022/07/10 08:20:31;;;;;;;0.00;0.00;;;;;;;;;;5041144;28;20198;-78
2022/07/10 08:22:59;;;;;;;0.00;0.00;;;;;;;;;;5048522;28;20705;-78
2022/07/10 08:25:29;;;;;;;0.00;0.00;;;;;;;;;;5045014;28;20198;-78
2022/07/10 08:28:01;;;;;;;0.00;0.00;;;;;;;;;;5040837;28;20219;-78
2022/07/10 08:30:31;;;;;;;0.00;0.00;;;;;;;;;;5039200;28;20266;-79
2022/07/10 08:32:59;;;;;;;0.00;0.00;;;;;;;;;;5044862;28;20235;-76
2022/07/10 08:35:26;;;;;;;0.00;0.00;;;;;;;;;;5040916;28;20202;-80
2022/07/10 08:37:54;;;;;;;0.00;0.00;;;;;;;;;;5047319;28;20287;-79
2022/07/10 08:40:23;;;;;;;0.00;0.00;;;;;;;;;;5044474;28;20203;-78
2022/07/10 08:42:52;;;;;;;0.00;0.00;;;;;;;;;;5040225;28;20233;-79
2022/07/10 08:45:19;;;;;;;0.00;0.00;;;;;;;;;;5043239;28;20293;-78
2022/07/10 08:47:47;;;;;;;0.00;0.00;;;;;;;;;;5050391;28;20215;-80
2022/07/10 08:50:20;;;;;;;0.00;0.00;;;;;;;;;;5067743;28;20199;-82
2022/07/10 08:52:54;;;;;;;0.00;0.00;;;;;;;;;;5049569;28;20225;-77
2022/07/10 08:55:22;;;;;;;0.00;0.00;;;;;;;;;;5044937;28;20203;-80
2022/07/10 08:57:52;;;;;;;0.00;0.00;;;;;;;;;;5061390;28;20196;-77
2022/07/10 09:00:19;;;;;;;0.00;0.00;;;;;;;;;;5045760;28;20187;-78
2022/07/10 09:02:47;;;;;;;0.00;0.00;;;;;;;;;;5037639;28;20272;-77
2022/07/10 09:05:14;;;;;;;0.00;0.00;;;;;;;;;;5064703;28;20206;-78
2022/07/10 09:07:43;;;;;;;0.00;0.00;;;;;;;;;;5042246;28;20191;-80
2022/07/10 09:10:12;;;;;;;0.00;0.00;;;;;;;;;;5041766;28;20226;-78
2022/07/10 09:12:51;;;;;;;0.00;0.00;;;;;;;;;;5042950;28;20226;-77
2022/07/10 09:15:19;;;;;;;0.00;0.00;;;;;;;;;;5042905;28;20211;-79
2022/07/10 09:17:51;;;;;;;0.00;0.00;;;;;;;;;;5045032;28;20195;-77
2022/07/10 09:20:25;;;;;;;0.00;0.00;;;;;;;;;;5048688;28;20195;-77
2022/07/10 09:22:53;;;;;;;0.00;0.00;;;;;;;;;;5049899;28;20323;-76
2022/07/10 09:25:21;;;;;;;0.00;0.00;;;;;;;;;;5068705;28;20207;-80
2022/07/10 09:27:56;;;;;;;0.00;0.00;;;;;;;;;;5045724;28;20210;-79
2022/07/10 09:30:32;;;;;;;0.00;0.00;;;;;;;;;;5045804;28;20263;-79
2022/07/10 09:33:15;;;;;;;0.00;0.00;;;;;;;;;;5047238;28;20222;-78
2022/07/10 09:36:11;;;;;;;0.00;0.00;;;;;;;;;;5047426;28;20851;-80
2022/07/10 09:38:49;;;;;;;0.00;0.00;;;;;;;;;;5052676;28;20218;-82
2022/07/10 09:41:18;;;;;;;0.00;0.00;;;;;;;;;;5048360;28;20215;-79
2022/07/10 09:43:47;;;;;;;0.00;0.00;;;;;;;;;;5045537;28;20203;-80
2022/07/10 09:46:15;;;;;;;0.00;0.00;;;;;;;;;;5042504;28;20241;-80
2022/07/10 09:48:42;;;;;;;0.00;0.00;;;;;;;;;;5048406;28;20306;-79
2022/07/10 09:51:10;;;;;;;0.00;0.00;;;;;;;;;;5069136;28;20210;-78
2022/07/10 09:53:40;;;;;;;0.00;0.00;;;;;;;;;;5046211;28;20199;-79
2022/07/10 09:56:08;;;;;;;0.00;0.00;;;;;;;;;;5049115;28;20203;-79
2022/07/10 09:58:36;;;;;;;0.00;0.00;;;;;;;;;;5054013;28;20200;-79
2022/07/10 10:01:05;;;;;;;0.00;0.00;;;;;;;;;;5049920;28;20282;-81
2022/07/10 10:03:35;;;;;;;0.00;0.00;;;;;;;;;;5044362;28;20209;-79
2022/07/10 10:06:11;;;;;;;0.00;0.00;;;;;;;;;;5039031;28;20206;-79
2022/07/10 10:08:40;;;;;;;0.00;0.00;;;;;;;;;;5041699;28;20309;-79
2022/07/10 10:11:21;;;;;;;0.00;0.00;;;;;;;;;;5065621;28;20215;-77
2022/07/10 10:13:50;;;;;;;0.00;0.00;;;;;;;;;;5049332;28;20210;-77
2022/07/10 10:22:42;;;;;;;0.00;0.00;;;;;;;;;;5045098;28;20210;-79
2022/07/10 10:25:11;;;;;;;0.00;0.00;;;;;;;;;;5048804;28;20202;-78
2022/07/10 10:27:38;;;;;;;0.00;0.00;;;;;;;;;;5039569;28;20196;-78
2022/07/10 10:30:06;;;;;;;0.00;0.00;;;;;;;;;;5035876;28;20251;-78
2022/07/10 10:32:34;;;;;;;0.00;0.00;;;;;;;;;;5050574;28;20224;-78
2022/07/10 10:35:03;;;;;;;0.00;0.00;;;;;;;;;;5046849;28;20222;-78
2022/07/10 10:37:36;;;;;;;0.00;0.00;;;;;;;;;;5040515;28;20195;-78
2022/07/10 10:40:04;;;;;;;0.00;0.00;;;;;;;;;;5042244;28;20191;-77
2022/07/10 10:42:35;;;;;;;0.00;0.00;;;;;;;;;;5045013;28;20222;-77
2022/07/10 10:45:22;;;;;;;0.00;0.00;;;;;;;;;;5038914;28;20203;-77
2022/07/10 10:47:59;;;;;;;0.00;0.00;;;;;;;;;;5033478;28;20196;-78
2022/07/10 10:50:42;;;;;;;0.00;0.00;;;;;;;;;;5044818;28;20225;-78
2022/07/10 10:53:17;;;;;;;0.00;0.00;;;;;;;;;;5057637;28;20305;-79
2022/07/10 10:56:03;;;;;;;0.00;0.00;;;;;;;;;;5034682;28;20202;-77
2022/07/10 10:58:38;;;;;;;0.00;0.00;;;;;;;;;;5059194;28;20230;-77
2022/07/10 11:01:06;;;;;;;0.00;0.00;;;;;;;;;;5040961;28;20222;-78
2022/07/10 11:03:33;;;;;;;0.00;0.00;;;;;;;;;;5041419;28;20530;-77
2022/07/10 11:06:04;;;;;;;0.00;0.00;;;;;;;;;;5041818;28;20202;-78
2022/07/10 11:08:38;;;;;;;0.00;0.00;;;;;;;;;;5036928;28;20203;-78
2022/07/10 11:11:21;;;;;;;0.00;0.00;;;;;;;;;;5039345;28;20234;-78
2022/07/10 11:13:49;;;;;;;0.00;0.00;;;;;;;;;;5025418;28;20294;-78
2022/07/10 11:16:17;;;;;;;0.00;0.00;;;;;;;;;;5056695;28;20207;-78
2022/07/10 11:18:45;;;;;;;0.00;0.00;;;;;;;;;;5041887;28;20202;-80
2022/07/10 11:21:23;;;;;;;0.00;0.00;;;;;;;;;;5061352;28;20248;-79
2022/07/10 11:23:58;;;;;;;0.00;0.00;;;;;;;;;;5035680;28;20289;-77
2022/07/10 11:26:31;;;;;;;0.00;0.00;;;;;;;;;;5032220;28;20217;-77
2022/07/10 11:29:01;;;;;;;0.00;0.00;;;;;;;;;;5065410;28;20203;-76
2022/07/10 11:31:31;;;;;;;0.00;0.00;;;;;;;;;;5046070;28;20223;-77
2022/07/10 11:33:58;;;;;;;0.00;0.00;;;;;;;;;;5046472;28;20284;-80
2022/07/10 11:36:29;;;;;;;0.00;0.00;;;;;;;;;;5067025;28;20199;-77
2022/07/10 11:39:00;;;;;;;0.00;0.00;;;;;;;;;;5068551;28;20194;-78
2022/07/10 11:41:28;;;;;;;0.00;0.00;;;;;;;;;;5066533;28;20221;-80
2022/07/10 11:43:57;;;;;;;0.00;0.00;;;;;;;;;;5058970;28;20193;-80
2022/07/10 11:46:25;;;;;;;0.00;0.00;;;;;;;;;;5043042;28;20285;-79
2022/07/10 11:48:54;;;;;;;0.00;0.00;;;;;;;;;;5044797;28;20233;-81
2022/07/10 11:51:27;;;;;;;0.00;0.00;;;;;;;;;;5060979;28;20272;-81
2022/07/10 11:53:57;;;;;;;0.00;0.00;;;;;;;;;;5063595;28;20263;-83
2022/07/10 11:56:24;;;;;;;0.00;0.00;;;;;;;;;;5046226;28;20203;-78
2022/07/10 11:58:55;;;;;;;0.00;0.00;;;;;;;;;;5046412;28;20226;-80
2022/07/10 12:01:23;;;;;;;0.00;0.00;;;;;;;;;;5042786;28;20245;-79
2022/07/10 12:03:58;;;;;;;0.00;0.00;;;;;;;;;;5044005;28;20199;-79
2022/07/10 12:06:27;;;;;;;0.00;0.00;;;;;;;;;;5047129;28;20209;-78
2022/07/10 12:08:55;;;;;;;0.00;0.00;;;;;;;;;;5041800;28;20198;-79
2022/07/10 12:11:23;;;;;;;0.00;0.00;;;;;;;;;;5047806;28;20245;-78
2022/07/10 12:13:51;;;;;;;0.00;0.00;;;;;;;;;;5058621;28;20203;-78
2022/07/10 12:16:20;;;;;;;0.00;0.00;;;;;;;;;;5047019;28;20236;-79
2022/07/10 12:18:51;;;;;;;0.00;0.00;;;;;;;;;;5043727;28;20314;-82
2022/07/10 12:21:19;;;;;;;0.00;0.00;;;;;;;;;;5047359;28;20317;-79
2022/07/10 12:23:50;;;;;;;0.00;0.00;;;;;;;;;;5055469;28;20203;-79
2022/07/10 12:26:21;;;;;;;0.00;0.00;;;;;;;;;;5038978;28;20206;-80
2022/07/10 12:28:52;;;;;;;0.00;0.00;;;;;;;;;;5045688;28;20210;-79
2022/07/10 12:31:35;;;;;;;0.00;0.00;;;;;;;;;;5061315;28;20219;-78
2022/07/10 12:34:07;;;;;;;0.00;0.00;;;;;;;;;;5039991;28;20293;-78
2022/07/10 12:36:47;;;;;;;0.00;0.00;;;;;;;;;;5045867;28;20286;-76
2022/07/10 12:39:18;;;;;;;0.00;0.00;;;;;;;;;;5046349;28;20202;-75
2022/07/10 12:42:06;;;;;;;0.00;0.00;;;;;;;;;;5077370;22;20258;-74
2022/07/10 12:44:37;;;;;;;0.00;0.00;;;;;;;;;;5076183;28;20218;-73
2022/07/10 12:47:11;;;;;;;0.00;0.00;;;;;;;;;;5084349;28;20218;-72
2022/07/10 12:49:57;;;;;;;0.00;0.00;;;;;;;;;;5073264;28;20230;-74
2022/07/10 12:52:37;;;;;;;0.00;0.00;;;;;;;;;;5066367;28;20289;-72
2022/07/10 12:55:13;;;;;;;0.00;0.00;;;;;;;;;;5083710;28;20248;-73
2022/07/10 12:57:54;;;;;;;0.00;0.00;;;;;;;;;;5078139;28;20268;-73
2022/07/10 13:00:27;;;;;;;0.00;0.00;;;;;;;;;;5082529;28;20194;-72
2022/07/10 13:03:04;;;;;;;0.00;0.00;;;;;;;;;;5066021;28;20236;-72
2022/07/10 13:05:38;;;;;;;0.00;0.00;;;;;;;;;;5061391;28;20206;-73
2022/07/10 13:08:21;;;;;;;0.00;0.00;;;;;;;;;;5081885;28;20208;-72
2022/07/10 13:10:58;;;;;;;0.00;0.00;;;;;;;;;;5056328;28;20309;-72
2022/07/10 13:13:26;;;;;;;0.00;0.00;;;;;;;;;;5085161;28;20232;-72
2022/07/10 13:16:16;;;;;;;0.00;0.00;;;;;;;;;;5082931;28;20263;-73
2022/07/10 13:18:56;;;;;;;0.00;0.00;;;;;;;;;;5065203;28;20200;-73
2022/07/10 13:21:29;;;;;;;0.00;0.00;;;;;;;;;;5066897;28;20308;-72
2022/07/10 13:24:04;;;;;;;0.00;0.00;;;;;;;;;;5064084;28;20222;-74
2022/07/10 13:26:41;;;;;;;0.00;0.00;;;;;;;;;;5064949;28;20368;-74
2022/07/10 13:29:17;;;;;;;0.00;0.00;;;;;;;;;;5065489;28;20201;-73
2022/07/10 13:31:48;;;;;;;0.00;0.00;;;;;;;;;;5058568;28;20198;-73
2022/07/10 13:34:23;;;;;;;0.00;0.00;;;;;;;;;;5087723;28;20222;-73
2022/07/10 13:36:59;;;;;;;0.00;0.00;;;;;;;;;;5065678;28;20190;-73
2022/07/10 13:39:38;;;;;;;0.00;0.00;;;;;;;;;;5077837;28;20201;-73
2022/07/10 13:42:14;;;;;;;0.00;0.00;;;;;;;;;;5066690;28;20296;-72
2022/07/10 13:44:51;;;;;;;0.00;0.00;;;;;;;;;;5081862;28;20213;-72
2022/07/10 13:47:22;;;;;;;0.00;0.00;;;;;;;;;;5084447;28;20284;-72
2022/07/10 13:49:54;;;;;;;0.00;0.00;;;;;;;;;;5066276;28;20221;-73
2022/07/10 13:52:29;;;;;;;0.00;0.00;;;;;;;;;;5066755;28;20287;-71
2022/07/10 13:55:06;;;;;;;0.00;0.00;;;;;;;;;;5081712;28;20245;-72
2022/07/10 13:57:38;;;;;;;0.00;0.00;;;;;;;;;;5081297;28;20194;-72
2022/07/10 14:00:09;;;;;;;0.00;0.00;;;;;;;;;;5081447;28;20194;-71
2022/07/10 14:02:48;;;;;;;0.00;0.00;;;;;;;;;;5062457;28;20189;-72
2022/07/10 14:05:25;;;;;;;0.00;0.00;;;;;;;;;;5064663;28;20228;-71
2022/07/10 14:07:55;;;;;;;0.00;0.00;;;;;;;;;;5062838;28;20305;-71
2022/07/10 14:10:31;;;;;;;0.00;0.00;;;;;;;;;;5063990;28;20214;-70
2022/07/10 14:13:12;;;;;;;0.00;0.00;;;;;;;;;;5064469;28;20206;-70
2022/07/10 14:15:49;;;;;;;0.00;0.00;;;;;;;;;;5060811;28;20224;-71
2022/07/10 14:18:38;;;;;;;0.00;0.00;;;;;;;;;;5059236;28;20222;-72
2022/07/10 14:21:09;;;;;;;0.00;0.00;;;;;;;;;;5065044;28;20202;-71
2022/07/10 14:23:43;;;;;;;0.00;0.00;;;;;;;;;;5060000;28;20221;-70
2022/07/10 14:26:18;;;;;;;0.00;0.00;;;;;;;;;;5065911;28;20204;-71
2022/07/10 14:29:00;;;;;;;0.00;0.00;;;;;;;;;;5078217;28;20297;-70
2022/07/10 14:31:35;;;;;;;0.00;0.00;;;;;;;;;;5064929;28;20286;-71
2022/07/10 14:34:13;;;;;;;0.00;0.00;;;;;;;;;;5065343;28;20221;-71
2022/07/10 14:36:43;;;;;;;0.00;0.00;;;;;;;;;;5069333;28;20202;-71
2022/07/10 14:39:24;;;;;;;0.00;0.00;;;;;;;;;;5063797;28;20206;-71
2022/07/10 14:42:06;;;;;;;0.00;0.00;;;;;;;;;;5081524;28;20209;-72
2022/07/10 14:44:46;;;;;;;0.00;0.00;;;;;;;;;;5057322;28;20217;-70
2022/07/10 14:47:20;;;;;;;0.00;0.00;;;;;;;;;;5079797;28;20202;-71
2022/07/10 14:49:54;;;;;;;0.00;0.00;;;;;;;;;;5068016;28;20208;-71
2022/07/10 14:52:22;;;;;;;0.00;0.00;;;;;;;;;;5082055;28;20227;-72
2022/07/10 14:55:01;;;;;;;0.00;0.00;;;;;;;;;;5063506;28;20205;-72
2022/07/10 14:57:36;;;;;;;0.00;0.00;;;;;;;;;;5073764;28;20283;-71
2022/07/10 15:00:18;;;;;;;0.00;0.00;;;;;;;;;;5081036;28;20198;-72
2022/07/10 15:02:51;;;;;;;0.00;0.00;;;;;;;;;;5083508;28;20198;-71
2022/07/10 15:05:27;;;;;;;0.00;0.00;;;;;;;;;;5085692;28;20218;-71